sensor_id;sensor_type;location;lat;lon;timestamp;temperature;humidity
7598;DHT22;3840;59.32098800;18.06423600;2023-04-01T00:01:00;-3.00;99.90
7598;DHT22;3840;59.32098800;18.06423600;2023-04-01T00:03:26;-3.00;99.90
7598;DHT22;3840;59.32098800;18.06423600;2023-04-01T00:05:53;-3.10;99.90
7598;DHT22;3840;59.32098800;18.06423600;2023-04-01T00:08:19;-2.80;99.90
7598;DHT22;3840;59.32098800;18.06423600;2023-04-01T00:10:44;-3.00;99.90
7598;DHT22;3840;59.32098800;18.06423600;2023-04-01T00:13:11;-3.10;99.90
7598;DHT22;3840;59.32098800;18.06423600;2023-04-01T00:15:37;-3.10;99.90
7598;DHT22;3840;59.32098800;18.06423600;2023-04-01T00:18:02;-3.10;99.90
7598;DHT22;3840;59.32098800;18.06423600;2023-04-01T00:20:28;-3.10;99.90
7598;DHT22;3840;59.32098800;18.06423600;2023-04-01T00:22:54;-3.10;99.90
7598;DHT22;3840;59.32098800;18.06423600;2023-04-01T00:25:21;-3.10;99.90
7598;DHT22;3840;59.32098800;18.06423600;2023-04-01T00:27:47;-3.10;99.90
7598;DHT22;3840;59.32098800;18.06423600;2023-04-01T00:30:13;-3.10;99.90
7598;DHT22;3840;59.32098800;18.06423600;2023-04-01T00:32:38;-3.10;99.90
7598;DHT22;3840;59.32098800;18.06423600;2023-04-01T00:35:05;-3.10;99.90
7598;DHT22;3840;59.32098800;18.06423600;2023-04-01T00:37:31;-3.10;99.90
7598;DHT22;3840;59.32098800;18.06423600;2023-04-01T00:39:59;-3.10;99.90
7598;DHT22;3840;59.32098800;18.06423600;2023-04-01T00:42:26;-3.10;99.90
7598;DHT22;3840;59.32098800;18.06423600;2023-04-01T00:44:54;-3.20;99.90
7598;DHT22;3840;59.32098800;18.06423600;2023-04-01T00:47:21;-3.10;99.90
7598;DHT22;3840;59.32098800;18.06423600;2023-04-01T00:49:50;-3.10;99.90
7598;DHT22;3840;59.32098800;18.06423600;2023-04-01T00:52:22;-3.10;99.90
7598;DHT22;3840;59.32098800;18.06423600;2023-04-01T00:54:56;-3.10;99.90
7598;DHT22;3840;59.32098800;18.06423600;2023-04-01T00:57:31;-3.20;99.90
7598;DHT22;3840;59.32098800;18.06423600;2023-04-01T01:00:00;-3.20;99.90
7598;DHT22;3840;59.32098800;18.06423600;2023-04-01T01:02:25;-3.20;99.90
7598;DHT22;3840;59.32098800;18.06423600;2023-04-01T01:04:51;-4.30;99.90
7598;DHT22;3840;59.32098800;18.06423600;2023-04-01T01:13:22;-3.30;99.90
7598;DHT22;3840;59.32098800;18.06423600;2023-04-01T01:18:28;-3.30;99.90
7598;DHT22;3840;59.32098800;18.06423600;2023-04-01T01:21:23;-3.30;99.90
7598;DHT22;3840;59.32098800;18.06423600;2023-04-01T01:24:39;-3.30;99.90
7598;DHT22;3840;59.32098800;18.06423600;2023-04-01T01:27:11;-3.30;99.90
7598;DHT22;3840;59.32098800;18.06423600;2023-04-01T01:37:39;-3.30;99.90
7598;DHT22;3840;59.32098800;18.06423600;2023-04-01T01:40:10;-3.40;99.90
7598;DHT22;3840;59.32098800;18.06423600;2023-04-01T01:42:43;-3.40;99.90
7598;DHT22;3840;59.32098800;18.06423600;2023-04-01T01:45:13;-3.40;99.90
7598;DHT22;3840;59.32098800;18.06423600;2023-04-01T01:47:41;-3.40;99.90
7598;DHT22;3840;59.32098800;18.06423600;2023-04-01T01:50:08;-3.50;99.90
7598;DHT22;3840;59.32098800;18.06423600;2023-04-01T01:52:36;-3.50;99.90
7598;DHT22;3840;59.32098800;18.06423600;2023-04-01T01:55:22;-3.60;99.90
7598;DHT22;3840;59.32098800;18.06423600;2023-04-01T01:57:49;-3.50;99.90
7598;DHT22;3840;59.32098800;18.06423600;2023-04-01T02:00:16;-3.50;99.90
7598;DHT22;3840;59.32098800;18.06423600;2023-04-01T02:02:45;-3.40;99.90
7598;DHT22;3840;59.32098800;18.06423600;2023-04-01T02:05:19;-3.40;99.90
7598;DHT22;3840;59.32098800;18.06423600;2023-04-01T02:07:51;-3.40;99.90
7598;DHT22;3840;59.32098800;18.06423600;2023-04-01T02:10:21;-3.40;99.90
7598;DHT22;3840;59.32098800;18.06423600;2023-04-01T02:12:48;-3.50;99.90
7598;DHT22;3840;59.32098800;18.06423600;2023-04-01T02:15:15;-3.40;99.90
7598;DHT22;3840;59.32098800;18.06423600;2023-04-01T02:17:46;-3.50;99.90
7598;DHT22;3840;59.32098800;18.06423600;2023-04-01T02:20:16;-3.50;99.90
7598;DHT22;3840;59.32098800;18.06423600;2023-04-01T02:22:51;-3.50;99.90
7598;DHT22;3840;59.32098800;18.06423600;2023-04-01T02:25:22;-3.50;99.90
7598;DHT22;3840;59.32098800;18.06423600;2023-04-01T02:27:48;-3.40;99.90
7598;DHT22;3840;59.32098800;18.06423600;2023-04-01T02:30:16;-3.50;99.90
7598;DHT22;3840;59.32098800;18.06423600;2023-04-01T02:32:42;-3.40;99.90
7598;DHT22;3840;59.32098800;18.06423600;2023-04-01T02:35:11;-3.50;99.90
7598;DHT22;3840;59.32098800;18.06423600;2023-04-01T02:37:38;-3.40;99.90
7598;DHT22;3840;59.32098800;18.06423600;2023-04-01T02:40:07;-3.50;99.90
7598;DHT22;3840;59.32098800;18.06423600;2023-04-01T02:42:34;-3.50;99.90
7598;DHT22;3840;59.32098800;18.06423600;2023-04-01T02:44:59;-3.50;99.90
7598;DHT22;3840;59.32098800;18.06423600;2023-04-01T02:47:25;-3.50;99.90
7598;DHT22;3840;59.32098800;18.06423600;2023-04-01T02:49:51;-3.30;99.90
7598;DHT22;3840;59.32098800;18.06423600;2023-04-01T02:52:23;-3.30;99.90
7598;DHT22;3840;59.32098800;18.06423600;2023-04-01T02:54:49;-3.40;99.90
7598;DHT22;3840;59.32098800;18.06423600;2023-04-01T02:57:15;-3.50;99.90
7598;DHT22;3840;59.32098800;18.06423600;2023-04-01T02:59:42;-3.50;99.90
7598;DHT22;3840;59.32098800;18.06423600;2023-04-01T03:02:08;-3.50;99.90
7598;DHT22;3840;59.32098800;18.06423600;2023-04-01T03:04:33;-3.50;99.90
7598;DHT22;3840;59.32098800;18.06423600;2023-04-01T03:06:59;-3.50;99.90
7598;DHT22;3840;59.32098800;18.06423600;2023-04-01T03:09:25;-3.50;99.90
7598;DHT22;3840;59.32098800;18.06423600;2023-04-01T03:11:52;-3.40;99.90
7598;DHT22;3840;59.32098800;18.06423600;2023-04-01T03:14:18;-3.40;99.90
7598;DHT22;3840;59.32098800;18.06423600;2023-04-01T03:16:43;-3.50;99.90
7598;DHT22;3840;59.32098800;18.06423600;2023-04-01T03:19:10;-3.50;99.90
7598;DHT22;3840;59.32098800;18.06423600;2023-04-01T03:21:36;-3.40;99.90
7598;DHT22;3840;59.32098800;18.06423600;2023-04-01T03:24:01;-3.30;99.90
7598;DHT22;3840;59.32098800;18.06423600;2023-04-01T03:26:27;-3.40;99.90
7598;DHT22;3840;59.32098800;18.06423600;2023-04-01T03:28:53;-3.40;99.90
7598;DHT22;3840;59.32098800;18.06423600;2023-04-01T03:31:20;-3.40;99.90
7598;DHT22;3840;59.32098800;18.06423600;2023-04-01T03:33:46;-3.30;99.90
7598;DHT22;3840;59.32098800;18.06423600;2023-04-01T03:36:11;-3.30;99.90
7598;DHT22;3840;59.32098800;18.06423600;2023-04-01T03:38:41;-3.30;99.90
7598;DHT22;3840;59.32098800;18.06423600;2023-04-01T03:41:11;-3.30;99.90
7598;DHT22;3840;59.32098800;18.06423600;2023-04-01T03:43:37;-3.30;99.90
7598;DHT22;3840;59.32098800;18.06423600;2023-04-01T03:46:02;-3.30;99.90
7598;DHT22;3840;59.32098800;18.06423600;2023-04-01T03:48:28;-3.30;99.90
7598;DHT22;3840;59.32098800;18.06423600;2023-04-01T03:50:55;-3.30;99.90
7598;DHT22;3840;59.32098800;18.06423600;2023-04-01T03:53:21;-3.20;99.90
7598;DHT22;3840;59.32098800;18.06423600;2023-04-01T03:55:46;-3.40;99.90
7598;DHT22;3840;59.32098800;18.06423600;2023-04-01T03:58:12;-3.40;99.90
7598;DHT22;3840;59.32098800;18.06423600;2023-04-01T04:00:38;-3.40;99.90
7598;DHT22;3840;59.32098800;18.06423600;2023-04-01T04:03:05;-3.40;99.90
7598;DHT22;3840;59.32098800;18.06423600;2023-04-01T04:05:31;-3.30;99.90
7598;DHT22;3840;59.32098800;18.06423600;2023-04-01T04:07:56;-3.30;99.90
7598;DHT22;3840;59.32098800;18.06423600;2023-04-01T04:10:22;-3.30;99.90
7598;DHT22;3840;59.32098800;18.06423600;2023-04-01T04:12:51;-3.30;99.90
7598;DHT22;3840;59.32098800;18.06423600;2023-04-01T04:15:17;-3.30;99.90
7598;DHT22;3840;59.32098800;18.06423600;2023-04-01T04:17:44;-3.40;99.90
7598;DHT22;3840;59.32098800;18.06423600;2023-04-01T04:20:10;-3.30;99.90
7598;DHT22;3840;59.32098800;18.06423600;2023-04-01T04:22:36;-3.40;99.90
7598;DHT22;3840;59.32098800;18.06423600;2023-04-01T04:25:02;-3.30;99.90
7598;DHT22;3840;59.32098800;18.06423600;2023-04-01T04:27:28;-3.30;99.90
7598;DHT22;3840;59.32098800;18.06423600;2023-04-01T04:29:54;-3.30;99.90
7598;DHT22;3840;59.32098800;18.06423600;2023-04-01T04:32:21;-3.20;99.90
7598;DHT22;3840;59.32098800;18.06423600;2023-04-01T04:34:46;-3.20;99.90
7598;DHT22;3840;59.32098800;18.06423600;2023-04-01T04:37:12;-3.20;99.90
7598;DHT22;3840;59.32098800;18.06423600;2023-04-01T04:39:38;-3.20;99.90
7598;DHT22;3840;59.32098800;18.06423600;2023-04-01T04:42:04;-3.30;99.90
7598;DHT22;3840;59.32098800;18.06423600;2023-04-01T04:44:30;-3.20;99.90
7598;DHT22;3840;59.32098800;18.06423600;2023-04-01T04:46:56;-3.20;99.90
7598;DHT22;3840;59.32098800;18.06423600;2023-04-01T04:49:22;-3.20;99.90
7598;DHT22;3840;59.32098800;18.06423600;2023-04-01T04:51:49;-3.20;99.90
7598;DHT22;3840;59.32098800;18.06423600;2023-04-01T04:54:15;-3.20;99.90
7598;DHT22;3840;59.32098800;18.06423600;2023-04-01T04:56:40;-3.20;99.90
7598;DHT22;3840;59.32098800;18.06423600;2023-04-01T04:59:06;-3.10;99.90
7598;DHT22;3840;59.32098800;18.06423600;2023-04-01T05:01:32;-3.00;99.90
7598;DHT22;3840;59.32098800;18.06423600;2023-04-01T05:03:59;-3.00;99.90
7598;DHT22;3840;59.32098800;18.06423600;2023-04-01T05:06:25;-3.00;99.90
7598;DHT22;3840;59.32098800;18.06423600;2023-04-01T05:08:56;-2.80;99.90
7598;DHT22;3840;59.32098800;18.06423600;2023-04-01T05:11:22;-2.80;99.90
7598;DHT22;3840;59.32098800;18.06423600;2023-04-01T05:13:48;-2.80;99.90
7598;DHT22;3840;59.32098800;18.06423600;2023-04-01T05:16:16;-2.80;99.90
7598;DHT22;3840;59.32098800;18.06423600;2023-04-01T05:18:42;-2.80;99.90
7598;DHT22;3840;59.32098800;18.06423600;2023-04-01T05:21:10;-2.80;99.90
7598;DHT22;3840;59.32098800;18.06423600;2023-04-01T05:23:37;-2.70;99.90
7598;DHT22;3840;59.32098800;18.06423600;2023-04-01T05:26:08;-2.70;99.90
7598;DHT22;3840;59.32098800;18.06423600;2023-04-01T05:28:35;-2.60;99.90
7598;DHT22;3840;59.32098800;18.06423600;2023-04-01T05:31:04;-2.40;99.90
7598;DHT22;3840;59.32098800;18.06423600;2023-04-01T05:33:31;-2.40;99.90
7598;DHT22;3840;59.32098800;18.06423600;2023-04-01T05:36:14;-2.30;99.90
7598;DHT22;3840;59.32098800;18.06423600;2023-04-01T05:38:41;-2.20;99.90
7598;DHT22;3840;59.32098800;18.06423600;2023-04-01T05:41:07;-2.20;99.90
7598;DHT22;3840;59.32098800;18.06423600;2023-04-01T05:43:36;-2.10;99.90
7598;DHT22;3840;59.32098800;18.06423600;2023-04-01T05:46:02;-2.10;99.90
7598;DHT22;3840;59.32098800;18.06423600;2023-04-01T05:48:28;-2.00;99.90
7598;DHT22;3840;59.32098800;18.06423600;2023-04-01T05:50:53;-1.70;99.90
7598;DHT22;3840;59.32098800;18.06423600;2023-04-01T05:53:19;-1.80;99.90
7598;DHT22;3840;59.32098800;18.06423600;2023-04-01T05:55:45;-1.60;99.90
7598;DHT22;3840;59.32098800;18.06423600;2023-04-01T05:58:11;-1.70;99.90
7598;DHT22;3840;59.32098800;18.06423600;2023-04-01T06:00:36;-1.60;99.90
7598;DHT22;3840;59.32098800;18.06423600;2023-04-01T06:03:03;-1.60;99.90
7598;DHT22;3840;59.32098800;18.06423600;2023-04-01T06:05:36;-1.50;99.90
7598;DHT22;3840;59.32098800;18.06423600;2023-04-01T06:08:15;-1.40;99.90
7598;DHT22;3840;59.32098800;18.06423600;2023-04-01T06:39:24;-0.60;99.90
7598;DHT22;3840;59.32098800;18.06423600;2023-04-01T06:45:26;-0.40;99.90
7598;DHT22;3840;59.32098800;18.06423600;2023-04-01T06:48:10;-0.50;99.90
7598;DHT22;3840;59.32098800;18.06423600;2023-04-01T06:53:21;-0.30;99.90
7598;DHT22;3840;59.32098800;18.06423600;2023-04-01T06:55:55;-0.30;99.90
7598;DHT22;3840;59.32098800;18.06423600;2023-04-01T06:58:31;-0.30;99.90
7598;DHT22;3840;59.32098800;18.06423600;2023-04-01T07:01:03;-0.20;99.90
7598;DHT22;3840;59.32098800;18.06423600;2023-04-01T07:06:31;0.10;99.90
7598;DHT22;3840;59.32098800;18.06423600;2023-04-01T07:09:00;-0.10;99.90
7598;DHT22;3840;59.32098800;18.06423600;2023-04-01T07:11:31;-0.10;99.90
7598;DHT22;3840;59.32098800;18.06423600;2023-04-01T07:13:59;-0.10;99.90
7598;DHT22;3840;59.32098800;18.06423600;2023-04-01T07:22:39;-0.10;99.90
7598;DHT22;3840;59.32098800;18.06423600;2023-04-01T07:25:21;0.00;99.90
7598;DHT22;3840;59.32098800;18.06423600;2023-04-01T07:27:53;0.10;99.90
7598;DHT22;3840;59.32098800;18.06423600;2023-04-01T07:30:23;0.10;99.90
7598;DHT22;3840;59.32098800;18.06423600;2023-04-01T07:33:04;0.30;99.90
7598;DHT22;3840;59.32098800;18.06423600;2023-04-01T07:35:56;0.20;99.90
7598;DHT22;3840;59.32098800;18.06423600;2023-04-01T07:38:40;0.30;99.90
7598;DHT22;3840;59.32098800;18.06423600;2023-04-01T07:49:24;0.30;99.90
7598;DHT22;3840;59.32098800;18.06423600;2023-04-01T07:52:09;0.40;99.90
7598;DHT22;3840;59.32098800;18.06423600;2023-04-01T08:00:48;0.40;99.90
7598;DHT22;3840;59.32098800;18.06423600;2023-04-01T08:06:33;0.50;99.90
7598;DHT22;3840;59.32098800;18.06423600;2023-04-01T08:09:27;0.50;99.90
7598;DHT22;3840;59.32098800;18.06423600;2023-04-01T08:12:09;0.50;99.90
7598;DHT22;3840;59.32098800;18.06423600;2023-04-01T08:23:03;0.70;99.90
7598;DHT22;3840;59.32098800;18.06423600;2023-04-01T08:25:32;0.80;99.90
7598;DHT22;3840;59.32098800;18.06423600;2023-04-01T08:28:19;0.90;99.90
7598;DHT22;3840;59.32098800;18.06423600;2023-04-01T08:30:58;0.90;99.90
7598;DHT22;3840;59.32098800;18.06423600;2023-04-01T08:33:30;1.00;99.90
7598;DHT22;3840;59.32098800;18.06423600;2023-04-01T08:36:19;1.00;99.90
7598;DHT22;3840;59.32098800;18.06423600;2023-04-01T08:38:55;1.00;99.90
7598;DHT22;3840;59.32098800;18.06423600;2023-04-01T08:42:27;1.10;99.90
7598;DHT22;3840;59.32098800;18.06423600;2023-04-01T08:55:49;1.40;99.90
7598;DHT22;3840;59.32098800;18.06423600;2023-04-01T09:10:24;1.70;99.90
7598;DHT22;3840;59.32098800;18.06423600;2023-04-01T09:12:57;2.00;99.90
7598;DHT22;3840;59.32098800;18.06423600;2023-04-01T09:18:46;2.00;99.90
7598;DHT22;3840;59.32098800;18.06423600;2023-04-01T09:27:12;2.20;99.90
7598;DHT22;3840;59.32098800;18.06423600;2023-04-01T09:38:20;2.40;99.90
7598;DHT22;3840;59.32098800;18.06423600;2023-04-01T09:41:05;2.50;99.90
7598;DHT22;3840;59.32098800;18.06423600;2023-04-01T09:43:56;2.60;99.90
7598;DHT22;3840;59.32098800;18.06423600;2023-04-01T09:49:17;2.80;99.90
7598;DHT22;3840;59.32098800;18.06423600;2023-04-01T09:55:34;3.00;99.90
7598;DHT22;3840;59.32098800;18.06423600;2023-04-01T10:10:10;3.50;99.90
7598;DHT22;3840;59.32098800;18.06423600;2023-04-01T10:13:09;3.60;99.90
7598;DHT22;3840;59.32098800;18.06423600;2023-04-01T10:18:46;3.60;99.90
7598;DHT22;3840;59.32098800;18.06423600;2023-04-01T10:27:19;3.70;99.90
7598;DHT22;3840;59.32098800;18.06423600;2023-04-01T10:35:38;3.80;99.90
7598;DHT22;3840;59.32098800;18.06423600;2023-04-01T10:41:58;4.10;99.90
7598;DHT22;3840;59.32098800;18.06423600;2023-04-01T10:49:48;4.10;99.90
7598;DHT22;3840;59.32098800;18.06423600;2023-04-01T10:58:15;4.30;99.90
7598;DHT22;3840;59.32098800;18.06423600;2023-04-01T11:15:37;4.50;99.90
7598;DHT22;3840;59.32098800;18.06423600;2023-04-01T11:23:50;4.70;99.90
7598;DHT22;3840;59.32098800;18.06423600;2023-04-01T11:32:23;4.70;99.90
7598;DHT22;3840;59.32098800;18.06423600;2023-04-01T11:40:38;4.80;99.90
7598;DHT22;3840;59.32098800;18.06423600;2023-04-01T11:43:21;4.90;99.90
7598;DHT22;3840;59.32098800;18.06423600;2023-04-01T12:05:34;4.90;99.90
7598;DHT22;3840;59.32098800;18.06423600;2023-04-01T12:11:04;4.80;99.90
7598;DHT22;3840;59.32098800;18.06423600;2023-04-01T12:13:42;4.80;99.90
7598;DHT22;3840;59.32098800;18.06423600;2023-04-01T12:16:39;4.90;99.90
7598;DHT22;3840;59.32098800;18.06423600;2023-04-01T12:40:46;4.90;99.90
7598;DHT22;3840;59.32098800;18.06423600;2023-04-01T12:57:50;4.60;99.90
7598;DHT22;3840;59.32098800;18.06423600;2023-04-01T13:14:44;4.70;99.90
7598;DHT22;3840;59.32098800;18.06423600;2023-04-01T13:22:19;4.70;99.90
7598;DHT22;3840;59.32098800;18.06423600;2023-04-01T13:24:52;6.00;99.90
7598;DHT22;3840;59.32098800;18.06423600;2023-04-01T13:27:35;4.60;99.90
7598;DHT22;3840;59.32098800;18.06423600;2023-04-01T13:44:34;4.40;99.90
7598;DHT22;3840;59.32098800;18.06423600;2023-04-01T13:47:12;4.30;99.90
7598;DHT22;3840;59.32098800;18.06423600;2023-04-01T13:53:18;4.30;99.90
7598;DHT22;3840;59.32098800;18.06423600;2023-04-01T13:59:12;4.30;99.90
7598;DHT22;3840;59.32098800;18.06423600;2023-04-01T14:02:13;4.30;99.90
7598;DHT22;3840;59.32098800;18.06423600;2023-04-01T14:08:07;4.40;99.90
7598;DHT22;3840;59.32098800;18.06423600;2023-04-01T14:16:16;4.30;99.90
7598;DHT22;3840;59.32098800;18.06423600;2023-04-01T14:24:57;4.30;99.90
7598;DHT22;3840;59.32098800;18.06423600;2023-04-01T14:33:06;4.10;99.90
7598;DHT22;3840;59.32098800;18.06423600;2023-04-01T14:38:48;4.10;99.90
7598;DHT22;3840;59.32098800;18.06423600;2023-04-01T14:49:50;3.90;99.90
7598;DHT22;3840;59.32098800;18.06423600;2023-04-01T14:52:28;3.90;99.90
7598;DHT22;3840;59.32098800;18.06423600;2023-04-01T14:54:56;3.90;99.90
7598;DHT22;3840;59.32098800;18.06423600;2023-04-01T14:57:30;3.90;99.90
7598;DHT22;3840;59.32098800;18.06423600;2023-04-01T15:00:21;3.80;99.90
7598;DHT22;3840;59.32098800;18.06423600;2023-04-01T15:03:02;3.80;99.90
7598;DHT22;3840;59.32098800;18.06423600;2023-04-01T15:06:00;3.80;99.90
7598;DHT22;3840;59.32098800;18.06423600;2023-04-01T15:08:35;3.80;99.90
7598;DHT22;3840;59.32098800;18.06423600;2023-04-01T15:11:28;3.80;99.90
7598;DHT22;3840;59.32098800;18.06423600;2023-04-01T15:22:32;3.80;99.90
7598;DHT22;3840;59.32098800;18.06423600;2023-04-01T15:27:57;3.80;99.90
7598;DHT22;3840;59.32098800;18.06423600;2023-04-01T15:31:00;3.70;99.90
7598;DHT22;3840;59.32098800;18.06423600;2023-04-01T15:33:47;3.90;99.90
7598;DHT22;3840;59.32098800;18.06423600;2023-04-01T15:36:25;3.70;99.90
7598;DHT22;3840;59.32098800;18.06423600;2023-04-01T15:38:59;3.70;99.90
7598;DHT22;3840;59.32098800;18.06423600;2023-04-01T15:50:26;3.60;99.90
7598;DHT22;3840;59.32098800;18.06423600;2023-04-01T15:56:26;3.40;99.90
7598;DHT22;3840;59.32098800;18.06423600;2023-04-01T16:01:58;3.30;99.90
7598;DHT22;3840;59.32098800;18.06423600;2023-04-01T16:05:01;3.30;99.90
7598;DHT22;3840;59.32098800;18.06423600;2023-04-01T16:10:35;3.30;99.90
7598;DHT22;3840;59.32098800;18.06423600;2023-04-01T16:13:12;3.30;99.90
7598;DHT22;3840;59.32098800;18.06423600;2023-04-01T16:18:50;3.20;99.90
7598;DHT22;3840;59.32098800;18.06423600;2023-04-01T16:21:24;3.10;99.90
7598;DHT22;3840;59.32098800;18.06423600;2023-04-01T16:23:59;3.10;99.90
7598;DHT22;3840;59.32098800;18.06423600;2023-04-01T16:26:43;3.00;99.90
7598;DHT22;3840;59.32098800;18.06423600;2023-04-01T16:34:41;3.00;99.90
7598;DHT22;3840;59.32098800;18.06423600;2023-04-01T16:37:17;2.90;99.90
7598;DHT22;3840;59.32098800;18.06423600;2023-04-01T16:48:14;2.80;99.90
7598;DHT22;3840;59.32098800;18.06423600;2023-04-01T16:50:59;2.70;99.90
7598;DHT22;3840;59.32098800;18.06423600;2023-04-01T16:53:52;2.70;99.90
7598;DHT22;3840;59.32098800;18.06423600;2023-04-01T16:56:41;2.60;99.90
7598;DHT22;3840;59.32098800;18.06423600;2023-04-01T16:59:37;2.60;99.90
7598;DHT22;3840;59.32098800;18.06423600;2023-04-01T17:04:31;2.50;99.90
7598;DHT22;3840;59.32098800;18.06423600;2023-04-01T17:07:15;2.50;99.90
7598;DHT22;3840;59.32098800;18.06423600;2023-04-01T17:10:22;2.50;99.90
7598;DHT22;3840;59.32098800;18.06423600;2023-04-01T17:18:12;2.20;99.90
7598;DHT22;3840;59.32098800;18.06423600;2023-04-01T17:21:08;2.00;99.90
7598;DHT22;3840;59.32098800;18.06423600;2023-04-01T17:28:43;1.80;99.90
7598;DHT22;3840;59.32098800;18.06423600;2023-04-01T17:36:20;1.60;99.90
7598;DHT22;3840;59.32098800;18.06423600;2023-04-01T17:42:06;1.50;99.90
7598;DHT22;3840;59.32098800;18.06423600;2023-04-01T17:44:57;1.50;99.90
7598;DHT22;3840;59.32098800;18.06423600;2023-04-01T17:53:02;1.30;99.90
7598;DHT22;3840;59.32098800;18.06423600;2023-04-01T17:58:45;1.30;99.90
7598;DHT22;3840;59.32098800;18.06423600;2023-04-01T18:07:07;1.10;99.90
7598;DHT22;3840;59.32098800;18.06423600;2023-04-01T18:10:12;1.00;99.90
7598;DHT22;3840;59.32098800;18.06423600;2023-04-01T18:13:17;1.00;99.90
7598;DHT22;3840;59.32098800;18.06423600;2023-04-01T18:15:43;0.90;99.90
7598;DHT22;3840;59.32098800;18.06423600;2023-04-01T18:26:34;0.70;99.90
7598;DHT22;3840;59.32098800;18.06423600;2023-04-01T18:29:26;0.70;99.90
7598;DHT22;3840;59.32098800;18.06423600;2023-04-01T18:31:52;0.60;99.90
7598;DHT22;3840;59.32098800;18.06423600;2023-04-01T18:35:02;0.50;99.90
7598;DHT22;3840;59.32098800;18.06423600;2023-04-01T18:37:37;0.50;99.90
7598;DHT22;3840;59.32098800;18.06423600;2023-04-01T18:40:27;0.50;99.90
7598;DHT22;3840;59.32098800;18.06423600;2023-04-01T18:43:00;0.30;99.90
7598;DHT22;3840;59.32098800;18.06423600;2023-04-01T18:45:31;0.30;99.90
7598;DHT22;3840;59.32098800;18.06423600;2023-04-01T18:48:49;0.30;99.90
7598;DHT22;3840;59.32098800;18.06423600;2023-04-01T18:54:02;0.20;99.90
7598;DHT22;3840;59.32098800;18.06423600;2023-04-01T18:56:35;0.10;99.90
7598;DHT22;3840;59.32098800;18.06423600;2023-04-01T19:04:39;0.00;99.90
7598;DHT22;3840;59.32098800;18.06423600;2023-04-01T19:07:46;0.00;99.90
7598;DHT22;3840;59.32098800;18.06423600;2023-04-01T19:13:27;-0.10;99.90
7598;DHT22;3840;59.32098800;18.06423600;2023-04-01T19:21:17;-0.20;99.90
7598;DHT22;3840;59.32098800;18.06423600;2023-04-01T19:23:58;0.00;99.90
7598;DHT22;3840;59.32098800;18.06423600;2023-04-01T19:26:33;-0.30;99.90
7598;DHT22;3840;59.32098800;18.06423600;2023-04-01T19:37:50;-0.40;99.90
7598;DHT22;3840;59.32098800;18.06423600;2023-04-01T19:40:35;0.20;99.90
7598;DHT22;3840;59.32098800;18.06423600;2023-04-01T19:51:03;-0.50;99.90
7598;DHT22;3840;59.32098800;18.06423600;2023-04-01T19:56:23;-0.50;99.90
7598;DHT22;3840;59.32098800;18.06423600;2023-04-01T19:59:24;-0.70;99.90
7598;DHT22;3840;59.32098800;18.06423600;2023-04-01T20:05:27;-0.70;99.90
7598;DHT22;3840;59.32098800;18.06423600;2023-04-01T20:08:00;-0.70;99.90
7598;DHT22;3840;59.32098800;18.06423600;2023-04-01T20:16:06;-0.80;99.90
7598;DHT22;3840;59.32098800;18.06423600;2023-04-01T20:18:55;-0.50;99.90
7598;DHT22;3840;59.32098800;18.06423600;2023-04-01T20:21:36;-0.80;99.90
7598;DHT22;3840;59.32098800;18.06423600;2023-04-01T20:24:23;-0.80;99.90
7598;DHT22;3840;59.32098800;18.06423600;2023-04-01T20:39:00;-0.90;99.90
7598;DHT22;3840;59.32098800;18.06423600;2023-04-01T20:41:13;-0.90;99.90
7598;DHT22;3840;59.32098800;18.06423600;2023-04-01T20:47:08;-1.00;99.90
7598;DHT22;3840;59.32098800;18.06423600;2023-04-01T20:49:40;-1.10;99.90
7598;DHT22;3840;59.32098800;18.06423600;2023-04-01T20:57:48;-1.10;99.90
7598;DHT22;3840;59.32098800;18.06423600;2023-04-01T21:08:53;-1.10;99.90
7598;DHT22;3840;59.32098800;18.06423600;2023-04-01T21:14:29;-1.20;99.90
7598;DHT22;3840;59.32098800;18.06423600;2023-04-01T21:20:07;-1.20;99.90
7598;DHT22;3840;59.32098800;18.06423600;2023-04-01T21:22:41;-1.20;99.90
7598;DHT22;3840;59.32098800;18.06423600;2023-04-01T21:25:30;-1.20;99.90
7598;DHT22;3840;59.32098800;18.06423600;2023-04-01T21:28:07;-1.30;99.90
7598;DHT22;3840;59.32098800;18.06423600;2023-04-01T21:34:09;-1.20;99.90
7598;DHT22;3840;59.32098800;18.06423600;2023-04-01T21:56:23;-1.20;99.90
7598;DHT22;3840;59.32098800;18.06423600;2023-04-01T22:04:49;-1.30;99.90
7598;DHT22;3840;59.32098800;18.06423600;2023-04-01T22:07:23;-1.20;99.90
7598;DHT22;3840;59.32098800;18.06423600;2023-04-01T22:10:10;-1.20;99.90
7598;DHT22;3840;59.32098800;18.06423600;2023-04-01T22:12:47;-1.20;99.90
7598;DHT22;3840;59.32098800;18.06423600;2023-04-01T22:15:40;-1.20;99.90
7598;DHT22;3840;59.32098800;18.06423600;2023-04-01T22:18:19;-1.30;99.90
7598;DHT22;3840;59.32098800;18.06423600;2023-04-01T22:21:17;-1.30;99.90
7598;DHT22;3840;59.32098800;18.06423600;2023-04-01T22:23:47;-1.20;99.90
7598;DHT22;3840;59.32098800;18.06423600;2023-04-01T22:26:39;-1.20;99.90
7598;DHT22;3840;59.32098800;18.06423600;2023-04-01T22:31:48;-1.20;99.90
7598;DHT22;3840;59.32098800;18.06423600;2023-04-01T22:34:37;-1.20;99.90
7598;DHT22;3840;59.32098800;18.06423600;2023-04-01T22:37:20;-1.30;99.90
7598;DHT22;3840;59.32098800;18.06423600;2023-04-01T22:42:45;-1.30;99.90
7598;DHT22;3840;59.32098800;18.06423600;2023-04-01T22:45:18;-1.30;99.90
7598;DHT22;3840;59.32098800;18.06423600;2023-04-01T22:48:10;-1.30;99.90
7598;DHT22;3840;59.32098800;18.06423600;2023-04-01T22:50:48;-1.30;99.90
7598;DHT22;3840;59.32098800;18.06423600;2023-04-01T22:56:07;-1.20;99.90
7598;DHT22;3840;59.32098800;18.06423600;2023-04-01T22:58:41;-1.40;99.90
7598;DHT22;3840;59.32098800;18.06423600;2023-04-01T23:01:19;-1.40;99.90
7598;DHT22;3840;59.32098800;18.06423600;2023-04-01T23:03:49;-1.40;99.90
7598;DHT22;3840;59.32098800;18.06423600;2023-04-01T23:06:35;-1.40;99.90
7598;DHT22;3840;59.32098800;18.06423600;2023-04-01T23:11:50;-1.50;99.90
7598;DHT22;3840;59.32098800;18.06423600;2023-04-01T23:20:20;-1.50;99.90
7598;DHT22;3840;59.32098800;18.06423600;2023-04-01T23:22:54;-1.50;99.90
7598;DHT22;3840;59.32098800;18.06423600;2023-04-01T23:27:58;-1.60;99.90
7598;DHT22;3840;59.32098800;18.06423600;2023-04-01T23:33:22;-1.60;99.90
7598;DHT22;3840;59.32098800;18.06423600;2023-04-01T23:35:58;-1.60;99.90
7598;DHT22;3840;59.32098800;18.06423600;2023-04-01T23:38:41;-1.60;99.90